Time;durP1;ratioP1;P1;durP2;ratioP2;P2;SDS_P1;SDS_P2;PMS_P1;PMS_P2;Temp;Humidity;BMP_temperature;BMP_pressure;BME280_temperature;BME280_humidity;BME280_pressure;Samples;Min_cycle;Max_cycle;Signal;HPM_P1;HPM_P2
2022/09/16 00:02:24;;;;;;;1.50;1.00;;;14.30;98.20;;;;;;6207317;23;20478;-76
2022/09/16 00:05:13;;;;;;;1.50;1.00;;;14.30;98.20;;;;;;6214336;23;21087;-76
2022/09/16 00:20:07;;;;;;;1.50;0.97;;;14.30;98.20;;;;;;6157770;23;20715;-76
2022/09/16 00:23:05;;;;;;;1.50;1.00;;;14.30;98.20;;;;;;6191312;23;20844;-76
2022/09/16 00:25:34;;;;;;;1.50;1.00;;;14.30;98.20;;;;;;6170966;23;20822;-77
2022/09/16 00:28:04;;;;;;;1.50;0.90;;;14.20;98.20;;;;;;6179972;23;20430;-76
2022/09/16 00:30:31;;;;;;;1.50;1.00;;;14.20;98.20;;;;;;6194077;23;20431;-77
2022/09/16 00:32:58;;;;;;;1.50;1.00;;;14.20;98.20;;;;;;6178211;23;20451;-77
2022/09/16 00:35:25;;;;;;;1.50;1.00;;;14.20;98.20;;;;;;6179492;23;20820;-77
2022/09/16 00:37:58;;;;;;;1.50;0.90;;;14.20;98.20;;;;;;6182702;23;20419;-75
2022/09/16 00:40:24;;;;;;;1.50;1.00;;;14.20;98.20;;;;;;6189855;23;20413;-75
2022/09/16 00:42:53;;;;;;;1.53;1.10;;;14.20;98.20;;;;;;6178319;23;20773;-77
2022/09/16 00:45:23;;;;;;;1.50;1.10;;;14.10;98.20;;;;;;6178850;23;20440;-75
2022/09/16 00:47:53;;;;;;;1.50;1.00;;;14.10;98.20;;;;;;6190971;23;20539;-77
2022/09/16 00:50:23;;;;;;;1.50;1.00;;;14.10;98.20;;;;;;6180208;23;20423;-76
2022/09/16 00:52:51;;;;;;;1.50;0.93;;;14.10;98.20;;;;;;6189431;23;20424;-75
2022/09/16 01:02:14;;;;;;;1.50;1.00;;;13.90;98.20;;;;;;6103355;23;20424;-76
2022/09/16 01:04:47;;;;;;;1.50;1.03;;;13.90;98.20;;;;;;6172390;23;20432;-76
2022/09/16 01:07:15;;;;;;;1.50;1.00;;;13.80;98.20;;;;;;6181094;23;20466;-75
2022/09/16 01:10:01;;;;;;;1.50;1.00;;;13.80;98.20;;;;;;6196120;23;20897;-75
2022/09/16 01:12:31;;;;;;;1.50;1.10;;;13.80;98.20;;;;;;6180761;23;20415;-77
2022/09/16 01:14:59;;;;;;;1.50;1.10;;;13.70;98.20;;;;;;6170293;23;20622;-75
2022/09/16 01:17:47;;;;;;;1.50;1.00;;;13.70;98.20;;;;;;6190715;23;20517;-74
2022/09/16 01:20:47;;;;;;;1.50;1.07;;;13.70;98.20;;;;;;6195219;23;20475;-75
2022/09/16 01:27:06;;;;;;;1.50;1.00;;;13.70;98.20;;;;;;6146313;23;20491;-76
2022/09/16 01:30:17;;;;;;;1.50;0.97;;;13.70;98.20;;;;;;6122716;23;20443;-75
2022/09/16 01:32:57;;;;;;;1.50;1.00;;;13.80;98.20;;;;;;6185169;23;20906;-76
2022/09/16 01:35:35;;;;;;;1.50;1.10;;;13.80;98.20;;;;;;6180505;23;20432;-75
2022/09/16 01:38:15;;;;;;;1.50;1.00;;;13.80;98.20;;;;;;6181890;23;20486;-76
2022/09/16 01:40:52;;;;;;;1.50;0.90;;;13.80;98.20;;;;;;6189015;23;20479;-75
2022/09/16 01:43:24;;;;;;;1.50;0.97;;;13.80;98.20;;;;;;6193684;23;20423;-75
2022/09/16 01:45:55;;;;;;;1.50;1.00;;;13.80;98.20;;;;;;6183176;23;21014;-75
2022/09/16 01:48:32;;;;;;;1.53;1.07;;;13.80;98.20;;;;;;6185715;23;20431;-75
2022/09/16 01:51:05;;;;;;;1.53;1.10;;;13.80;98.20;;;;;;6182663;23;20400;-76
2022/09/16 01:53:37;;;;;;;1.50;1.10;;;13.90;98.20;;;;;;6185069;23;20791;-76
2022/09/16 01:56:46;;;;;;;1.50;1.00;;;13.80;98.20;;;;;;6181775;23;20440;-76
2022/09/16 01:59:21;;;;;;;1.50;1.10;;;13.90;98.20;;;;;;6185267;23;20494;-76
2022/09/16 02:01:52;;;;;;;1.53;1.10;;;13.90;98.20;;;;;;6195275;23;20418;-76
2022/09/16 02:04:26;;;;;;;1.50;1.10;;;13.90;98.20;;;;;;6197786;23;20474;-76
2022/09/16 02:06:56;;;;;;;1.50;1.00;;;13.90;98.20;;;;;;6190279;23;20408;-76
2022/09/16 02:09:33;;;;;;;1.50;1.00;;;14.00;98.20;;;;;;6189608;23;20420;-76
2022/09/16 02:12:04;;;;;;;1.50;1.00;;;13.90;98.20;;;;;;6214880;23;20461;-77
2022/09/16 02:14:36;;;;;;;1.50;1.00;;;13.90;98.20;;;;;;6229774;23;20445;-76
2022/09/16 02:17:09;;;;;;;1.50;1.00;;;13.90;98.20;;;;;;6219343;23;20414;-76
2022/09/16 02:19:52;;;;;;;1.50;1.00;;;14.00;98.20;;;;;;6229363;23;20488;-76
2022/09/16 02:22:25;;;;;;;1.53;1.00;;;13.90;98.20;;;;;;6218563;23;20453;-75
2022/09/16 02:24:54;;;;;;;1.50;1.00;;;14.00;98.20;;;;;;6227942;23;20510;-76
2022/09/16 02:27:25;;;;;;;1.50;1.00;;;13.90;98.20;;;;;;6226995;23;20423;-76
2022/09/16 02:29:58;;;;;;;1.50;1.00;;;13.90;98.20;;;;;;6228208;23;20439;-75
2022/09/16 02:32:29;;;;;;;1.50;1.00;;;13.90;98.20;;;;;;6229082;23;20414;-75
2022/09/16 02:34:59;;;;;;;1.50;1.00;;;14.00;98.20;;;;;;6220224;23;20459;-76
2022/09/16 02:37:31;;;;;;;1.53;1.00;;;14.00;98.20;;;;;;6220385;23;20407;-77
2022/09/16 02:40:04;;;;;;;1.50;1.00;;;14.00;98.20;;;;;;6230511;23;20422;-77
2022/09/16 02:42:39;;;;;;;1.50;1.00;;;14.00;98.20;;;;;;6229438;23;20446;-76
2022/09/16 02:45:07;;;;;;;1.50;1.00;;;14.00;98.20;;;;;;6217693;23;20435;-76
2022/09/16 02:47:47;;;;;;;1.50;1.00;;;14.00;98.20;;;;;;6218978;23;20507;-75
2022/09/16 02:50:25;;;;;;;1.57;1.10;;;14.00;98.20;;;;;;6219929;23;20490;-76
2022/09/16 02:53:01;;;;;;;1.50;1.00;;;14.00;98.20;;;;;;6229257;23;20820;-76
2022/09/16 02:55:38;;;;;;;1.60;1.10;;;14.00;98.20;;;;;;6228520;23;20447;-76
2022/09/16 02:58:10;;;;;;;1.50;1.00;;;14.00;98.20;;;;;;6219044;23;20494;-76
2022/09/16 03:00:45;;;;;;;1.50;1.00;;;14.00;98.20;;;;;;6230947;23;20454;-76
2022/09/16 03:03:16;;;;;;;1.50;1.00;;;14.00;98.20;;;;;;6219465;23;20489;-77
2022/09/16 03:06:11;;;;;;;1.50;1.00;;;14.00;98.20;;;;;;6227893;23;20443;-77
2022/09/16 03:09:11;;;;;;;1.50;1.00;;;14.00;98.20;;;;;;6228590;23;20933;-76
2022/09/16 03:12:18;;;;;;;1.60;1.10;;;14.00;98.20;;;;;;6206332;23;20483;-76
2022/09/16 03:15:10;;;;;;;1.50;1.00;;;14.00;98.20;;;;;;6229000;23;20793;-76
2022/09/16 03:18:01;;;;;;;1.50;1.10;;;14.00;98.20;;;;;;6229720;23;20996;-77
2022/09/16 03:21:02;;;;;;;1.53;1.10;;;14.00;98.20;;;;;;6217306;23;20922;-76
2022/09/16 03:24:12;;;;;;;1.50;1.00;;;13.90;98.20;;;;;;6220404;23;20422;-75
2022/09/16 03:30:08;;;;;;;1.60;1.10;;;13.80;98.20;;;;;;6081308;23;20481;-76
2022/09/16 03:32:59;;;;;;;1.53;1.00;;;13.80;98.20;;;;;;6227372;23;20395;-75
2022/09/16 03:36:21;;;;;;;1.50;1.00;;;13.70;98.20;;;;;;6215603;23;20481;-75
2022/09/16 03:38:53;;;;;;;1.50;1.00;;;13.70;98.20;;;;;;6227145;23;20445;-76
2022/09/16 03:41:29;;;;;;;1.50;1.00;;;13.60;98.20;;;;;;6218664;23;20404;-77
2022/09/16 03:43:57;;;;;;;1.53;1.10;;;13.60;98.20;;;;;;6226892;23;20435;-77
2022/09/16 03:46:27;;;;;;;1.60;1.10;;;13.60;98.20;;;;;;6209428;23;20434;-75
2022/09/16 03:48:54;;;;;;;1.53;1.00;;;13.60;98.20;;;;;;6212602;23;20757;-75
2022/09/16 03:51:25;;;;;;;1.53;1.10;;;13.50;98.20;;;;;;6211445;23;20433;-76
2022/09/16 03:54:02;;;;;;;1.60;1.10;;;13.50;98.20;;;;;;6213812;23;20451;-76
2022/09/16 03:56:33;;;;;;;1.50;1.00;;;13.50;98.20;;;;;;6220924;23;20429;-76
2022/09/16 03:59:00;;;;;;;1.50;1.00;;;13.50;98.20;;;;;;6221507;23;20419;-77
2022/09/16 04:01:27;;;;;;;1.50;1.00;;;13.50;98.20;;;;;;6212093;23;20449;-77
2022/09/16 04:03:56;;;;;;;1.50;1.00;;;13.50;98.20;;;;;;6209394;23;20443;-77
2022/09/16 04:06:44;;;;;;;1.50;1.00;;;13.50;98.20;;;;;;6213044;23;20750;-76
2022/09/16 04:09:14;;;;;;;1.50;1.00;;;13.50;98.20;;;;;;6221964;23;20721;-76
2022/09/16 04:11:41;;;;;;;1.50;1.00;;;13.50;98.20;;;;;;6211790;23;20423;-76
2022/09/16 04:14:08;;;;;;;1.50;1.00;;;13.50;98.20;;;;;;6210044;23;20455;-77
2022/09/16 04:16:52;;;;;;;1.50;1.03;;;13.50;98.20;;;;;;6222039;23;20901;-75
2022/09/16 04:19:51;;;;;;;1.50;1.00;;;13.50;98.20;;;;;;6223024;23;20446;-75
2022/09/16 04:22:20;;;;;;;1.53;1.00;;;13.50;98.20;;;;;;6205414;23;20415;-75
2022/09/16 04:28:00;;;;;;;1.50;1.00;;;13.50;98.20;;;;;;6216735;23;20449;-75
2022/09/16 04:30:30;;;;;;;1.50;1.00;;;13.60;98.20;;;;;;6222456;23;20486;-76
2022/09/16 04:33:16;;;;;;;1.50;1.03;;;13.50;98.20;;;;;;6222018;23;20462;-75
2022/09/16 04:35:42;;;;;;;1.50;1.00;;;13.50;98.20;;;;;;6213219;23;20889;-75
2022/09/16 04:38:09;;;;;;;1.50;0.93;;;13.50;98.20;;;;;;6211222;23;20506;-75
2022/09/16 04:40:38;;;;;;;1.50;1.00;;;13.50;98.20;;;;;;6215704;23;20461;-75
2022/09/16 04:43:05;;;;;;;1.50;1.00;;;13.50;98.20;;;;;;6213528;23;20419;-77
2022/09/16 04:45:33;;;;;;;1.70;1.30;;;13.50;98.20;;;;;;6209174;23;20474;-77
2022/09/16 04:48:00;;;;;;;1.50;1.00;;;13.50;98.20;;;;;;6209145;23;20419;-77
2022/09/16 04:50:27;;;;;;;1.50;0.90;;;13.50;98.20;;;;;;6220166;23;20434;-79
2022/09/16 04:52:56;;;;;;;1.50;1.00;;;13.40;98.20;;;;;;6210200;23;20430;-77
2022/09/16 04:55:23;;;;;;;1.50;1.00;;;13.40;98.20;;;;;;6222037;23;20497;-78
2022/09/16 04:57:52;;;;;;;1.50;1.00;;;13.40;98.20;;;;;;6211942;23;20824;-77
2022/09/16 05:00:20;;;;;;;1.50;1.00;;;13.40;98.20;;;;;;6220117;23;20487;-75
2022/09/16 05:02:48;;;;;;;1.50;1.00;;;13.40;98.20;;;;;;6221503;23;20434;-77
2022/09/16 05:05:17;;;;;;;1.50;0.93;;;13.40;98.20;;;;;;6212064;23;20765;-75
2022/09/16 05:07:44;;;;;;;1.50;1.10;;;13.40;98.20;;;;;;6211293;23;20427;-75
2022/09/16 05:10:12;;;;;;;1.53;1.10;;;13.40;98.20;;;;;;6221915;23;20431;-78
2022/09/16 05:12:39;;;;;;;1.53;1.00;;;13.40;98.20;;;;;;6210523;23;20403;-76
2022/09/16 05:15:11;;;;;;;1.50;1.10;;;13.40;98.20;;;;;;6211547;23;20766;-75
2022/09/16 05:17:39;;;;;;;1.60;1.20;;;13.40;98.20;;;;;;6214791;23;20425;-76
2022/09/16 05:20:07;;;;;;;1.50;1.00;;;13.40;98.20;;;;;;6213309;23;20430;-76
2022/09/16 05:22:34;;;;;;;1.50;1.00;;;13.40;98.20;;;;;;6211675;23;20423;-76
2022/09/16 05:25:02;;;;;;;1.53;1.00;;;13.40;98.20;;;;;;6212490;23;20435;-77
2022/09/16 05:27:31;;;;;;;1.53;1.00;;;13.50;98.20;;;;;;6218338;23;20419;-76
2022/09/16 05:30:02;;;;;;;1.50;1.00;;;13.50;98.20;;;;;;6206941;23;20426;-77
2022/09/16 05:32:32;;;;;;;1.60;1.10;;;13.50;98.20;;;;;;6206038;23;20413;-76
2022/09/16 05:40:22;;;;;;;1.50;1.00;;;13.50;98.20;;;;;;6212209;23;20414;-76
2022/09/16 05:42:50;;;;;;;1.50;1.10;;;13.60;98.20;;;;;;6210465;23;20454;-76
2022/09/16 05:45:24;;;;;;;1.50;1.00;;;13.60;98.20;;;;;;6222031;23;20462;-77
2022/09/16 05:48:20;;;;;;;1.50;1.10;;;13.60;98.20;;;;;;6215923;23;20429;-76
2022/09/16 05:50:52;;;;;;;1.50;1.00;;;13.50;98.20;;;;;;6206420;23;20785;-76
2022/09/16 05:53:32;;;;;;;1.50;1.00;;;13.50;98.20;;;;;;6223675;23;20423;-75
2022/09/16 05:56:30;;;;;;;1.50;1.07;;;13.50;98.20;;;;;;6225449;23;20452;-75
2022/09/16 05:59:01;;;;;;;1.53;1.00;;;13.60;98.20;;;;;;6217934;23;20585;-75
2022/09/16 06:01:31;;;;;;;1.50;0.93;;;13.60;98.20;;;;;;6227294;23;20418;-76
2022/09/16 06:04:03;;;;;;;1.53;1.07;;;13.60;98.20;;;;;;6214744;23;20438;-76
2022/09/16 06:09:18;;;;;;;1.50;1.10;;;13.60;98.20;;;;;;6208800;23;20433;-74
2022/09/16 06:11:52;;;;;;;1.50;1.00;;;13.70;98.20;;;;;;6227195;23;20442;-76
2022/09/16 06:14:24;;;;;;;1.50;1.00;;;13.70;98.20;;;;;;6225561;23;20452;-75
2022/09/16 06:16:51;;;;;;;1.50;1.00;;;13.70;98.20;;;;;;6228390;23;20940;-75
2022/09/16 06:19:48;;;;;;;1.50;0.90;;;13.70;98.20;;;;;;6227269;23;20441;-75
2022/09/16 06:22:16;;;;;;;1.50;1.07;;;13.80;98.20;;;;;;6216212;23;20423;-76
2022/09/16 06:24:46;;;;;;;1.50;0.90;;;13.80;98.20;;;;;;6227960;23;20501;-76
2022/09/16 06:27:18;;;;;;;1.50;1.00;;;13.90;98.20;;;;;;6214241;23;20485;-76
2022/09/16 06:29:45;;;;;;;1.50;1.00;;;14.00;98.20;;;;;;6228512;23;20438;-76
2022/09/16 06:32:13;;;;;;;1.50;1.00;;;14.00;98.20;;;;;;6216106;23;20749;-76
2022/09/16 06:35:06;;;;;;;1.50;1.00;;;14.10;98.20;;;;;;6202464;22;20467;-76
2022/09/16 06:37:37;;;;;;;1.50;1.00;;;14.10;98.20;;;;;;6196345;23;20431;-75
2022/09/16 06:40:05;;;;;;;1.53;1.10;;;14.10;98.20;;;;;;6184002;23;20484;-76
2022/09/16 06:42:34;;;;;;;1.50;1.00;;;14.20;98.20;;;;;;6194964;23;20430;-75
2022/09/16 06:45:06;;;;;;;1.50;1.00;;;14.20;98.20;;;;;;6192335;22;20475;-76
2022/09/16 06:47:54;;;;;;;1.53;1.00;;;14.20;98.20;;;;;;6186762;23;20432;-76
2022/09/16 06:50:23;;;;;;;1.60;1.10;;;14.30;98.20;;;;;;6193109;23;20485;-76
2022/09/16 06:52:52;;;;;;;1.50;1.00;;;14.30;98.20;;;;;;6185165;23;20420;-76
2022/09/16 06:55:20;;;;;;;1.50;1.00;;;14.40;98.20;;;;;;6194567;23;20451;-75
2022/09/16 06:57:48;;;;;;;1.53;1.00;;;14.40;98.20;;;;;;6195562;23;20430;-75
2022/09/16 07:00:16;;;;;;;1.50;1.00;;;14.40;98.20;;;;;;6186752;23;20436;-75
2022/09/16 07:02:46;;;;;;;1.53;1.00;;;14.50;98.20;;;;;;6195885;23;20926;-76
2022/09/16 07:05:16;;;;;;;1.50;1.10;;;14.50;98.20;;;;;;6186355;23;20773;-76
2022/09/16 07:07:49;;;;;;;1.50;1.00;;;14.60;98.20;;;;;;6198894;23;20502;-77
2022/09/16 07:10:56;;;;;;;1.50;1.00;;;14.60;98.20;;;;;;6186254;23;20412;-77
2022/09/16 07:18:54;;;;;;;1.50;1.00;;;14.70;98.20;;;;;;6212581;23;20430;-76
2022/09/16 07:21:28;;;;;;;1.50;0.90;;;14.70;98.20;;;;;;6215305;23;20473;-75
2022/09/16 07:24:24;;;;;;;1.60;1.07;;;14.70;98.20;;;;;;6223790;23;20522;-77
2022/09/16 07:27:14;;;;;;;1.50;0.90;;;14.70;98.20;;;;;;6213280;23;20774;-76
2022/09/16 07:30:23;;;;;;;1.50;1.00;;;14.70;98.20;;;;;;6225279;23;20826;-76
2022/09/16 07:34:07;;;;;;;1.50;1.00;;;14.70;98.20;;;;;;6222257;23;20423;-76
2022/09/16 07:36:48;;;;;;;1.53;1.00;;;14.70;98.20;;;;;;6224454;23;20767;-75
2022/09/16 07:39:28;;;;;;;1.50;0.90;;;14.80;98.20;;;;;;6224469;23;20461;-75
2022/09/16 07:42:07;;;;;;;1.50;1.00;;;14.80;98.20;;;;;;6225496;23;20519;-76
2022/09/16 07:44:41;;;;;;;1.50;1.00;;;14.90;98.20;;;;;;6224559;23;20528;-74
2022/09/16 07:48:06;;;;;;;1.50;0.90;;;15.00;98.20;;;;;;6210752;23;20450;-76
2022/09/16 07:53:22;;;;;;;1.53;1.10;;;15.10;98.20;;;;;;6215031;23;20419;-76
2022/09/16 07:55:53;;;;;;;1.60;1.00;;;15.10;98.20;;;;;;6216912;23;20450;-76
2022/09/16 07:58:22;;;;;;;1.50;1.00;;;15.10;98.20;;;;;;6226161;23;20446;-76
2022/09/16 08:01:13;;;;;;;1.50;1.00;;;15.00;98.20;;;;;;6224518;23;20433;-76
2022/09/16 08:04:00;;;;;;;1.50;1.00;;;15.10;98.20;;;;;;6196909;23;20747;-76
2022/09/16 08:12:55;;;;;;;1.50;1.00;;;16.20;98.20;;;;;;6090729;23;20494;-76
2022/09/16 08:15:24;;;;;;;1.80;1.50;;;16.70;98.20;;;;;;6206711;23;20455;-75
2022/09/16 08:17:59;;;;;;;1.57;1.00;;;16.90;98.20;;;;;;6193666;23;20435;-76
2022/09/16 08:20:30;;;;;;;1.50;1.00;;;17.10;98.20;;;;;;6195277;23;20506;-76
2022/09/16 08:23:31;;;;;;;1.53;1.00;;;17.10;98.20;;;;;;6195452;23;20474;-75
2022/09/16 08:26:02;;;;;;;1.53;0.90;;;17.10;98.20;;;;;;6183867;23;20420;-75
2022/09/16 08:34:44;;;;;;;1.83;1.47;;;17.50;97.80;;;;;;6179170;23;20443;-76
2022/09/16 08:37:13;;;;;;;1.53;0.97;;;17.40;96.70;;;;;;6198102;23;21035;-76
2022/09/16 08:49:05;;;;;;;1.50;0.90;;;18.10;97.10;;;;;;6179881;23;20432;-76
2022/09/16 08:51:36;;;;;;;1.50;1.00;;;18.30;95.40;;;;;;6196989;23;20410;-77
2022/09/16 08:55:01;;;;;;;1.50;0.93;;;18.50;93.70;;;;;;6185291;23;20858;-77
2022/09/16 08:57:36;;;;;;;1.53;0.90;;;18.70;94.60;;;;;;6179151;23;20428;-76
2022/09/16 09:00:12;;;;;;;1.50;0.90;;;19.00;93.90;;;;;;6196446;23;20418;-77
2022/09/16 09:03:15;;;;;;;1.50;0.90;;;19.10;92.80;;;;;;6188085;23;20482;-75
2022/09/16 09:19:33;;;;;;;;;;;;;;;;;;;;;
2022/09/16 09:22:28;;;;;;;1.50;0.90;;;18.80;93.50;;;;;;6182345;23;20997;-76
2022/09/16 09:25:41;;;;;;;;;;;;;;;;;;;;;
2022/09/16 09:28:52;;;;;;;1.50;0.90;;;19.50;93.80;;;;;;6183240;23;20507;-76
2022/09/16 09:31:30;;;;;;;1.50;0.90;;;19.70;92.20;;;;;;6194948;23;20458;-74
2022/09/16 09:34:30;;;;;;;1.53;0.90;;;19.70;91.50;;;;;;6186416;23;20443;-77
2022/09/16 09:37:13;;;;;;;1.50;0.90;;;19.70;90.60;;;;;;6198256;23;20467;-76
2022/09/16 09:40:07;;;;;;;1.50;0.90;;;19.40;89.30;;;;;;6197924;23;20431;-77
2022/09/16 09:43:14;;;;;;;1.50;0.90;;;19.20;90.20;;;;;;6189814;23;20440;-77
2022/09/16 09:45:50;;;;;;;1.50;0.90;;;18.90;90.70;;;;;;6161618;23;20443;-77
2022/09/16 09:48:24;;;;;;;1.93;1.50;;;18.70;92.20;;;;;;6199339;23;20529;-77
2022/09/16 09:51:36;;;;;;;1.50;0.90;;;18.60;92.20;;;;;;6197331;23;20841;-75
2022/09/16 09:54:21;;;;;;;1.70;1.20;;;18.80;92.70;;;;;;6187024;23;20451;-76
2022/09/16 10:00:15;;;;;;;1.50;0.90;;;19.40;91.70;;;;;;6135862;23;20424;-78
2022/09/16 10:02:44;;;;;;;1.50;0.90;;;19.70;90.90;;;;;;6176462;23;20462;-76
2022/09/16 10:05:20;;;;;;;1.50;0.90;;;20.10;91.00;;;;;;6175889;23;20486;-74
2022/09/16 10:07:48;;;;;;;1.50;0.90;;;20.30;87.30;;;;;;6178984;23;20404;-75
2022/09/16 10:10:20;;;;;;;1.50;0.93;;;20.60;87.50;;;;;;6179968;23;20430;-76
2022/09/16 10:12:48;;;;;;;1.50;0.90;;;20.80;85.60;;;;;;6178865;23;20408;-76
2022/09/16 10:15:23;;;;;;;1.50;0.90;;;21.10;84.60;;;;;;6178381;23;20440;-76
2022/09/16 10:17:52;;;;;;;1.50;0.90;;;21.30;84.30;;;;;;6179014;23;20434;-77
2022/09/16 10:20:27;;;;;;;1.50;0.90;;;21.40;84.10;;;;;;6177237;23;20915;-76
2022/09/16 10:22:58;;;;;;;1.50;0.90;;;21.20;83.00;;;;;;6178251;23;20793;-76
2022/09/16 10:25:29;;;;;;;1.50;0.90;;;21.00;83.90;;;;;;6178745;23;20502;-76
2022/09/16 10:27:59;;;;;;;1.50;0.90;;;20.70;83.40;;;;;;6176898;23;20478;-77
2022/09/16 10:30:32;;;;;;;1.50;0.90;;;20.50;83.10;;;;;;6180072;23;20503;-76
2022/09/16 10:33:04;;;;;;;1.50;0.90;;;20.10;86.10;;;;;;6189335;23;20428;-76
2022/09/16 10:35:35;;;;;;;1.50;0.90;;;19.90;85.00;;;;;;6181889;23;20482;-76
2022/09/16 10:38:06;;;;;;;1.50;0.90;;;19.70;86.70;;;;;;6181065;23;20499;-75
2022/09/16 10:40:36;;;;;;;1.50;0.90;;;19.70;87.70;;;;;;6184109;23;20408;-75
2022/09/16 10:43:07;;;;;;;1.50;0.90;;;19.70;86.90;;;;;;6180242;23;20914;-75
2022/09/16 10:45:37;;;;;;;1.50;0.90;;;19.60;87.10;;;;;;6183370;23;20514;-75
2022/09/16 10:48:21;;;;;;;1.50;0.90;;;19.50;86.20;;;;;;6192120;23;20519;-76
2022/09/16 10:50:56;;;;;;;1.50;0.90;;;19.40;87.60;;;;;;6182237;23;20423;-76
2022/09/16 10:53:29;;;;;;;1.50;0.90;;;19.60;87.10;;;;;;6183381;23;20458;-77
2022/09/16 10:56:00;;;;;;;1.50;0.90;;;20.00;87.70;;;;;;6177890;23;20515;-74
2022/09/16 10:58:37;;;;;;;1.50;0.90;;;20.20;82.90;;;;;;6181602;23;20410;-75
2022/09/16 11:01:37;;;;;;;;;;;;;;;;;;;;;
2022/09/16 11:04:37;;;;;;;1.50;0.90;;;20.60;84.30;;;;;;6192813;23;20780;-76
2022/09/16 11:07:16;;;;;;;1.50;0.90;;;20.70;82.60;;;;;;6178206;23;20810;-75
2022/09/16 11:09:50;;;;;;;1.50;0.90;;;20.50;81.90;;;;;;6193262;23;20419;-77
2022/09/16 11:12:42;;;;;;;1.50;0.90;;;20.10;81.50;;;;;;6191257;23;20426;-76
2022/09/16 11:15:19;;;;;;;1.50;0.90;;;19.90;82.30;;;;;;6170095;23;20454;-74
2022/09/16 11:18:04;;;;;;;1.50;0.90;;;19.90;83.00;;;;;;6190421;23;20501;-74
2022/09/16 11:20:56;;;;;;;1.50;0.90;;;20.20;84.30;;;;;;6217332;23;20445;-76
2022/09/16 11:23:46;;;;;;;1.50;0.90;;;20.60;84.00;;;;;;6224314;23;20506;-75
2022/09/16 11:27:11;;;;;;;1.50;0.90;;;21.00;80.90;;;;;;6191587;23;20814;-76
2022/09/16 11:29:56;;;;;;;1.50;0.90;;;20.90;79.80;;;;;;6023394;23;20501;-76
2022/09/16 11:32:41;;;;;;;1.50;0.90;;;20.90;80.20;;;;;;5938401;23;20435;-76
2022/09/16 11:35:27;;;;;;;1.50;0.90;;;21.10;79.90;;;;;;5636159;25;20503;-74
2022/09/16 11:43:23;;;;;;;;;;;;;;;;;;;;;
2022/09/16 11:45:56;;;;;;;1.50;0.90;;;21.30;78.80;;;;;;5137571;27;20490;-73
2022/09/16 11:48:40;;;;;;;1.50;0.90;;;21.40;78.40;;;;;;5110255;27;22464;-75
2022/09/16 11:51:16;;;;;;;1.50;0.90;;;21.30;78.50;;;;;;5098656;27;20494;-74
2022/09/16 11:56:57;;;;;;;1.50;0.93;;;20.70;78.60;;;;;;4787033;29;20484;-74
2022/09/16 11:59:30;;;;;;;1.50;0.90;;;19.80;82.90;;;;;;4505103;30;1700711;-73
2022/09/16 12:02:03;;;;;;;1.50;0.90;;;18.90;88.60;;;;;;4560938;30;20306;-75
2022/09/16 12:04:37;;;;;;;1.50;0.90;;;17.90;93.20;;;;;;4583146;30;20515;-74
2022/09/16 12:07:13;;;;;;;1.50;1.00;;;17.20;96.90;;;;;;4575269;31;20489;-76
2022/09/16 12:09:46;;;;;;;1.70;1.10;;;16.50;98.20;;;;;;4579333;31;20485;-77
2022/09/16 12:12:34;;;;;;;1.50;0.90;;;15.90;98.20;;;;;;4579052;31;20515;-74
2022/09/16 12:15:06;;;;;;;1.50;0.90;;;15.50;98.20;;;;;;4573689;31;20509;-74
2022/09/16 12:17:57;;;;;;;3.30;2.03;;;15.40;98.20;;;;;;4578698;31;20856;-74
2022/09/16 12:20:30;;;;;;;1.50;1.00;;;15.20;98.20;;;;;;4578582;31;20495;-76
2022/09/16 12:23:06;;;;;;;1.50;1.00;;;15.10;98.20;;;;;;4577222;31;20512;-73
2022/09/16 12:25:40;;;;;;;1.50;0.90;;;15.10;98.20;;;;;;4573942;31;20575;-75
2022/09/16 12:28:15;;;;;;;1.50;1.00;;;15.00;98.20;;;;;;4570984;31;20497;-76
2022/09/16 12:30:49;;;;;;;1.50;0.90;;;15.10;98.20;;;;;;4577026;31;20517;-74
2022/09/16 12:33:21;;;;;;;1.50;1.00;;;15.20;98.20;;;;;;4576566;31;20477;-74
2022/09/16 12:35:56;;;;;;;1.50;0.90;;;15.30;98.20;;;;;;4573399;31;20509;-76
2022/09/16 12:38:25;;;;;;;1.50;1.00;;;15.50;98.20;;;;;;4570928;31;20485;-74
2022/09/16 12:41:09;;;;;;;1.50;1.00;;;15.70;98.20;;;;;;4575379;31;20504;-76
2022/09/16 12:44:06;;;;;;;1.50;0.90;;;15.90;98.20;;;;;;4574370;31;20961;-75
2022/09/16 12:46:55;;;;;;;1.50;0.90;;;16.10;98.20;;;;;;4574351;31;20494;-74
2022/09/16 12:49:49;;;;;;;1.50;0.97;;;16.30;98.20;;;;;;4573941;31;21014;-74
2022/09/16 12:52:35;;;;;;;1.50;0.93;;;16.40;98.20;;;;;;4571066;31;21127;-74
2022/09/16 12:55:31;;;;;;;1.50;1.00;;;16.50;98.20;;;;;;4559676;31;20574;-74
2022/09/16 12:58:38;;;;;;;1.50;1.00;;;16.80;98.20;;;;;;4563872;31;20891;-75
2022/09/16 13:01:18;;;;;;;1.50;1.00;;;16.90;98.20;;;;;;4574723;30;1313183;-76
2022/09/16 13:03:51;;;;;;;1.50;0.90;;;17.10;98.20;;;;;;4734732;30;20719;-75
2022/09/16 13:06:26;;;;;;;1.50;0.90;;;17.20;98.20;;;;;;4770974;30;20479;-74
2022/09/16 13:09:11;;;;;;;1.50;1.00;;;17.30;98.20;;;;;;4783946;29;20990;-75
2022/09/16 13:11:41;;;;;;;1.50;0.90;;;17.50;98.20;;;;;;4785277;29;20467;-75
2022/09/16 13:14:21;;;;;;;1.50;0.97;;;17.60;98.20;;;;;;4783839;30;20501;-75
2022/09/16 13:16:55;;;;;;;1.50;0.90;;;17.50;98.20;;;;;;4783694;29;20569;-73
2022/09/16 13:19:36;;;;;;;1.50;0.97;;;17.40;98.20;;;;;;4783531;29;20483;-73
2022/09/16 13:22:22;;;;;;;1.50;0.90;;;17.40;98.20;;;;;;4782373;29;21065;-76
2022/09/16 13:24:55;;;;;;;1.50;1.00;;;17.30;98.20;;;;;;4780695;29;20499;-75
2022/09/16 13:27:38;;;;;;;1.50;0.90;;;17.40;98.20;;;;;;4783264;29;20558;-73
2022/09/16 13:30:35;;;;;;;1.50;0.90;;;17.40;98.20;;;;;;4787232;29;20604;-75
2022/09/16 13:56:04;;;;;;;1.50;1.00;;;17.00;98.20;;;;;;5113586;24;20556;-75
2022/09/16 13:58:51;;;;;;;1.50;0.90;;;17.20;98.20;;;;;;4824591;29;20470;-76
2022/09/16 14:11:17;;;;;;;1.50;0.90;;;18.10;96.50;;;;;;4845148;29;20460;-79
2022/09/16 14:20:59;;;;;;;1.50;0.90;;;17.90;94.90;;;;;;4825898;29;20537;-76
2022/09/16 14:30:04;;;;;;;1.50;0.90;;;17.50;95.70;;;;;;4898075;29;20950;-77
2022/09/16 14:32:46;;;;;;;1.50;0.90;;;17.40;97.10;;;;;;4848873;29;20475;-76
2022/09/16 14:35:19;;;;;;;1.50;1.00;;;17.30;98.00;;;;;;4824601;29;20494;-77
2022/09/16 14:37:51;;;;;;;1.50;0.93;;;17.10;96.80;;;;;;4864236;29;20460;-76
2022/09/16 14:40:23;;;;;;;1.50;1.00;;;17.00;97.50;;;;;;4860071;29;20472;-76
2022/09/16 14:42:57;;;;;;;1.50;1.00;;;16.90;97.60;;;;;;4865729;29;20499;-76
2022/09/16 14:45:26;;;;;;;1.50;0.90;;;16.80;98.20;;;;;;4856691;29;20490;-75
2022/09/16 14:50:43;;;;;;;1.50;1.00;;;16.80;98.20;;;;;;4855394;29;20493;-76
2022/09/16 14:53:39;;;;;;;1.50;0.90;;;17.10;98.20;;;;;;4861061;29;20467;-76
2022/09/16 14:56:18;;;;;;;1.50;0.90;;;17.40;97.50;;;;;;4858849;29;20464;-75
2022/09/16 14:58:52;;;;;;;1.50;0.97;;;17.80;97.20;;;;;;4861137;29;20968;-77
2022/09/16 15:01:27;;;;;;;1.50;0.90;;;18.00;94.30;;;;;;4854104;29;20473;-76
2022/09/16 15:04:01;;;;;;;1.50;0.90;;;18.10;91.40;;;;;;4906931;29;20509;-74
2022/09/16 15:06:58;;;;;;;1.50;0.90;;;18.20;90.60;;;;;;4895323;29;20489;-75
2022/09/16 15:09:55;;;;;;;1.50;0.90;;;18.20;91.50;;;;;;4898710;29;20481;-75
2022/09/16 15:12:28;;;;;;;1.53;1.00;;;18.20;89.10;;;;;;4901421;29;20466;-76
2022/09/16 15:14:58;;;;;;;1.50;0.90;;;18.10;90.40;;;;;;4896922;29;20568;-77
2022/09/16 15:17:41;;;;;;;1.50;0.80;;;18.00;90.50;;;;;;4902996;29;20498;-78
2022/09/16 15:20:20;;;;;;;1.50;0.90;;;18.00;91.50;;;;;;4900186;29;20948;-78
2022/09/16 15:22:48;;;;;;;1.50;0.90;;;17.80;91.20;;;;;;4903565;29;20524;-77
2022/09/16 15:25:21;;;;;;;1.50;0.90;;;17.50;91.20;;;;;;4904282;29;20493;-79
2022/09/16 15:27:49;;;;;;;1.50;0.90;;;17.30;92.30;;;;;;4905896;29;20485;-78
2022/09/16 15:30:27;;;;;;;1.50;0.90;;;17.10;93.00;;;;;;4902912;29;21039;-78
2022/09/16 15:32:58;;;;;;;1.50;0.90;;;17.00;93.80;;;;;;4906107;29;20512;-78
2022/09/16 15:35:40;;;;;;;1.50;0.90;;;16.80;94.40;;;;;;4909788;29;20500;-76
2022/09/16 15:38:32;;;;;;;1.50;0.90;;;16.60;95.40;;;;;;4897099;29;20525;-76
2022/09/16 15:41:16;;;;;;;1.50;1.00;;;16.50;95.80;;;;;;4897336;29;20480;-76
2022/09/16 15:43:46;;;;;;;1.50;1.00;;;16.40;95.70;;;;;;4906213;29;20714;-76
2022/09/16 15:46:24;;;;;;;1.50;0.90;;;16.30;96.10;;;;;;4899068;29;20545;-75
2022/09/16 15:52:06;;;;;;;1.50;0.90;;;16.30;96.60;;;;;;4906474;29;20953;-75
2022/09/16 15:54:47;;;;;;;1.50;1.00;;;16.30;97.90;;;;;;4908777;29;20523;-75
2022/09/16 16:01:34;;;;;;;1.50;0.97;;;16.30;97.20;;;;;;4904978;29;20477;-76
2022/09/16 16:04:33;;;;;;;1.50;1.00;;;16.30;96.70;;;;;;4910229;29;21008;-76
2022/09/16 16:13:23;;;;;;;1.50;0.90;;;16.50;96.60;;;;;;4913501;29;20504;-75
2022/09/16 16:16:06;;;;;;;;;;;;;;;;;;;;;
2022/09/16 16:18:57;;;;;;;1.50;1.00;;;16.30;95.90;;;;;;4912529;29;20461;-76
2022/09/16 16:21:26;;;;;;;1.50;1.00;;;16.30;96.10;;;;;;4908066;29;20520;-77
2022/09/16 16:23:55;;;;;;;1.50;0.90;;;16.20;97.70;;;;;;4916637;29;20500;-75
2022/09/16 16:26:26;;;;;;;1.50;0.90;;;16.10;97.10;;;;;;4915841;29;20572;-75